sensor_id;sensor_type;location;lat;lon;timestamp;P1;durP1;ratioP1;P2;durP2;ratioP2
73154;SDS011;61364;52.418;7.382;2022-07-04T00:01:27;3.87;;;3.87;;
73154;SDS011;61364;52.418;7.382;2022-07-04T00:03:56;3.97;;;3.97;;
73154;SDS011;61364;52.418;7.382;2022-07-04T00:06:33;3.94;;;3.94;;
73154;SDS011;61364;52.418;7.382;2022-07-04T00:09:08;4.34;;;4.34;;
73154;SDS011;61364;52.418;7.382;2022-07-04T00:11:34;4.59;;;4.59;;
73154;SDS011;61364;52.418;7.382;2022-07-04T00:14:00;4.48;;;4.48;;
73154;SDS011;61364;52.418;7.382;2022-07-04T00:16:26;4.67;;;4.67;;
73154;SDS011;61364;52.418;7.382;2022-07-04T00:18:51;4.62;;;4.62;;
73154;SDS011;61364;52.418;7.382;2022-07-04T00:21:17;4.71;;;4.71;;
73154;SDS011;61364;52.418;7.382;2022-07-04T00:23:45;4.24;;;4.24;;
73154;SDS011;61364;52.418;7.382;2022-07-04T00:26:11;4.16;;;4.16;;
73154;SDS011;61364;52.418;7.382;2022-07-04T00:28:36;4.18;;;4.18;;
73154;SDS011;61364;52.418;7.382;2022-07-04T00:31:02;4.07;;;4.07;;
73154;SDS011;61364;52.418;7.382;2022-07-04T00:33:28;4.01;;;4.01;;
73154;SDS011;61364;52.418;7.382;2022-07-04T00:35:53;3.85;;;3.85;;
73154;SDS011;61364;52.418;7.382;2022-07-04T00:38:19;3.83;;;3.83;;
73154;SDS011;61364;52.418;7.382;2022-07-04T00:40:47;3.70;;;3.70;;
73154;SDS011;61364;52.418;7.382;2022-07-04T00:43:13;3.75;;;3.75;;
73154;SDS011;61364;52.418;7.382;2022-07-04T00:45:46;3.69;;;3.69;;
73154;SDS011;61364;52.418;7.382;2022-07-04T00:48:14;3.62;;;3.62;;
73154;SDS011;61364;52.418;7.382;2022-07-04T00:50:42;3.45;;;3.45;;
73154;SDS011;61364;52.418;7.382;2022-07-04T00:53:09;3.84;;;3.84;;
73154;SDS011;61364;52.418;7.382;2022-07-04T00:55:36;3.48;;;3.48;;
73154;SDS011;61364;52.418;7.382;2022-07-04T00:58:04;3.51;;;3.51;;
73154;SDS011;61364;52.418;7.382;2022-07-04T01:00:29;3.62;;;3.62;;
73154;SDS011;61364;52.418;7.382;2022-07-04T01:02:55;3.70;;;3.70;;
73154;SDS011;61364;52.418;7.382;2022-07-04T01:05:24;3.63;;;3.63;;
73154;SDS011;61364;52.418;7.382;2022-07-04T01:07:50;3.50;;;3.50;;
73154;SDS011;61364;52.418;7.382;2022-07-04T01:10:19;3.99;;;3.99;;
73154;SDS011;61364;52.418;7.382;2022-07-04T01:12:45;3.86;;;3.86;;
73154;SDS011;61364;52.418;7.382;2022-07-04T01:15:13;3.60;;;3.60;;
73154;SDS011;61364;52.418;7.382;2022-07-04T01:17:39;3.56;;;3.56;;
73154;SDS011;61364;52.418;7.382;2022-07-04T01:20:05;3.13;;;3.13;;
73154;SDS011;61364;52.418;7.382;2022-07-04T01:22:31;3.40;;;3.40;;
73154;SDS011;61364;52.418;7.382;2022-07-04T01:24:56;3.54;;;3.54;;
73154;SDS011;61364;52.418;7.382;2022-07-04T01:27:22;3.39;;;3.39;;
73154;SDS011;61364;52.418;7.382;2022-07-04T01:29:51;3.56;;;3.56;;
73154;SDS011;61364;52.418;7.382;2022-07-04T01:32:16;3.84;;;3.84;;
73154;SDS011;61364;52.418;7.382;2022-07-04T01:34:42;3.84;;;3.84;;
73154;SDS011;61364;52.418;7.382;2022-07-04T01:37:08;4.09;;;4.09;;
73154;SDS011;61364;52.418;7.382;2022-07-04T01:39:33;4.10;;;4.10;;
73154;SDS011;61364;52.418;7.382;2022-07-04T01:41:59;4.25;;;4.25;;
73154;SDS011;61364;52.418;7.382;2022-07-04T01:44:25;3.82;;;3.82;;
73154;SDS011;61364;52.418;7.382;2022-07-04T01:46:51;4.21;;;4.21;;
73154;SDS011;61364;52.418;7.382;2022-07-04T01:49:17;4.38;;;4.38;;
73154;SDS011;61364;52.418;7.382;2022-07-04T01:51:43;4.99;;;4.99;;
73154;SDS011;61364;52.418;7.382;2022-07-04T01:54:09;5.05;;;5.05;;
73154;SDS011;61364;52.418;7.382;2022-07-04T01:56:35;4.76;;;4.76;;
73154;SDS011;61364;52.418;7.382;2022-07-04T01:59:01;4.78;;;4.78;;
73154;SDS011;61364;52.418;7.382;2022-07-04T02:01:29;4.99;;;4.99;;
73154;SDS011;61364;52.418;7.382;2022-07-04T02:03:59;4.98;;;4.98;;
73154;SDS011;61364;52.418;7.382;2022-07-04T02:06:25;4.95;;;4.95;;
73154;SDS011;61364;52.418;7.382;2022-07-04T02:08:52;4.63;;;4.63;;
73154;SDS011;61364;52.418;7.382;2022-07-04T02:11:36;4.80;;;4.80;;
73154;SDS011;61364;52.418;7.382;2022-07-04T02:14:21;4.82;;;4.82;;
73154;SDS011;61364;52.418;7.382;2022-07-04T02:16:47;4.72;;;4.72;;
73154;SDS011;61364;52.418;7.382;2022-07-04T02:19:12;4.83;;;4.83;;
73154;SDS011;61364;52.418;7.382;2022-07-04T02:21:38;4.75;;;4.75;;
73154;SDS011;61364;52.418;7.382;2022-07-04T02:24:04;4.49;;;4.49;;
73154;SDS011;61364;52.418;7.382;2022-07-04T02:26:30;4.34;;;4.34;;
73154;SDS011;61364;52.418;7.382;2022-07-04T02:28:56;4.58;;;4.58;;
73154;SDS011;61364;52.418;7.382;2022-07-04T02:31:21;4.51;;;4.51;;
73154;SDS011;61364;52.418;7.382;2022-07-04T02:33:47;4.40;;;4.40;;
73154;SDS011;61364;52.418;7.382;2022-07-04T02:36:13;4.71;;;4.71;;
73154;SDS011;61364;52.418;7.382;2022-07-04T02:38:39;4.82;;;4.82;;
73154;SDS011;61364;52.418;7.382;2022-07-04T02:41:05;4.90;;;4.90;;
73154;SDS011;61364;52.418;7.382;2022-07-04T02:43:30;4.88;;;4.88;;
73154;SDS011;61364;52.418;7.382;2022-07-04T02:45:56;4.68;;;4.68;;
73154;SDS011;61364;52.418;7.382;2022-07-04T02:48:22;4.74;;;4.74;;
73154;SDS011;61364;52.418;7.382;2022-07-04T02:50:51;4.74;;;4.74;;
73154;SDS011;61364;52.418;7.382;2022-07-04T02:53:16;4.94;;;4.94;;
73154;SDS011;61364;52.418;7.382;2022-07-04T02:55:45;5.05;;;5.05;;
73154;SDS011;61364;52.418;7.382;2022-07-04T02:58:11;4.75;;;4.75;;
73154;SDS011;61364;52.418;7.382;2022-07-04T03:00:36;4.82;;;4.82;;
73154;SDS011;61364;52.418;7.382;2022-07-04T03:03:02;5.15;;;5.15;;
73154;SDS011;61364;52.418;7.382;2022-07-04T03:05:30;5.16;;;5.16;;
73154;SDS011;61364;52.418;7.382;2022-07-04T03:07:57;4.92;;;4.92;;
73154;SDS011;61364;52.418;7.382;2022-07-04T03:10:23;4.87;;;4.87;;
73154;SDS011;61364;52.418;7.382;2022-07-04T03:12:49;5.04;;;5.04;;
73154;SDS011;61364;52.418;7.382;2022-07-04T03:15:14;5.41;;;5.41;;
73154;SDS011;61364;52.418;7.382;2022-07-04T03:17:41;5.44;;;5.44;;
73154;SDS011;61364;52.418;7.382;2022-07-04T03:20:09;5.66;;;5.66;;
73154;SDS011;61364;52.418;7.382;2022-07-04T03:22:38;5.62;;;5.62;;
73154;SDS011;61364;52.418;7.382;2022-07-04T03:25:04;5.61;;;5.61;;
73154;SDS011;61364;52.418;7.382;2022-07-04T03:27:30;6.07;;;6.07;;
73154;SDS011;61364;52.418;7.382;2022-07-04T03:29:56;6.48;;;6.48;;
73154;SDS011;61364;52.418;7.382;2022-07-04T03:32:22;6.42;;;6.42;;
73154;SDS011;61364;52.418;7.382;2022-07-04T03:34:48;5.59;;;5.59;;
73154;SDS011;61364;52.418;7.382;2022-07-04T03:37:16;5.28;;;5.28;;
73154;SDS011;61364;52.418;7.382;2022-07-04T03:39:41;5.27;;;5.27;;
73154;SDS011;61364;52.418;7.382;2022-07-04T03:42:07;6.15;;;6.15;;
73154;SDS011;61364;52.418;7.382;2022-07-04T03:44:36;6.74;;;6.74;;
73154;SDS011;61364;52.418;7.382;2022-07-04T03:47:04;6.68;;;6.68;;
73154;SDS011;61364;52.418;7.382;2022-07-04T03:49:30;7.69;;;7.69;;
73154;SDS011;61364;52.418;7.382;2022-07-04T03:51:55;7.69;;;7.69;;
73154;SDS011;61364;52.418;7.382;2022-07-04T03:54:21;8.02;;;8.02;;
73154;SDS011;61364;52.418;7.382;2022-07-04T03:56:47;8.38;;;8.38;;
73154;SDS011;61364;52.418;7.382;2022-07-04T03:59:14;8.16;;;8.16;;
73154;SDS011;61364;52.418;7.382;2022-07-04T04:01:40;8.65;;;8.65;;
73154;SDS011;61364;52.418;7.382;2022-07-04T04:04:06;8.49;;;8.49;;
73154;SDS011;61364;52.418;7.382;2022-07-04T04:06:50;8.37;;;8.37;;
73154;SDS011;61364;52.418;7.382;2022-07-04T04:09:16;7.74;;;7.74;;
73154;SDS011;61364;52.418;7.382;2022-07-04T04:11:44;8.11;;;8.11;;
73154;SDS011;61364;52.418;7.382;2022-07-04T04:14:10;7.96;;;7.96;;
73154;SDS011;61364;52.418;7.382;2022-07-04T04:16:37;7.59;;;7.59;;
73154;SDS011;61364;52.418;7.382;2022-07-04T04:19:04;7.06;;;7.06;;
73154;SDS011;61364;52.418;7.382;2022-07-04T04:21:30;7.85;;;7.85;;
73154;SDS011;61364;52.418;7.382;2022-07-04T04:23:55;7.75;;;7.75;;
73154;SDS011;61364;52.418;7.382;2022-07-04T04:26:21;8.20;;;8.20;;
73154;SDS011;61364;52.418;7.382;2022-07-04T04:28:47;8.11;;;8.11;;
73154;SDS011;61364;52.418;7.382;2022-07-04T04:31:12;7.92;;;7.92;;
73154;SDS011;61364;52.418;7.382;2022-07-04T04:33:39;8.16;;;8.16;;
73154;SDS011;61364;52.418;7.382;2022-07-04T04:36:06;7.66;;;7.66;;
73154;SDS011;61364;52.418;7.382;2022-07-04T04:38:31;11.04;;;11.04;;
73154;SDS011;61364;52.418;7.382;2022-07-04T04:40:57;12.27;;;12.27;;
73154;SDS011;61364;52.418;7.382;2022-07-04T04:43:23;12.47;;;12.47;;
73154;SDS011;61364;52.418;7.382;2022-07-04T04:45:49;12.62;;;12.62;;
73154;SDS011;61364;52.418;7.382;2022-07-04T04:48:14;11.76;;;11.76;;
73154;SDS011;61364;52.418;7.382;2022-07-04T04:50:41;12.21;;;12.21;;
73154;SDS011;61364;52.418;7.382;2022-07-04T04:53:07;12.08;;;12.08;;
73154;SDS011;61364;52.418;7.382;2022-07-04T04:55:32;11.59;;;11.59;;
73154;SDS011;61364;52.418;7.382;2022-07-04T04:57:58;11.20;;;11.20;;
73154;SDS011;61364;52.418;7.382;2022-07-04T05:00:27;10.57;;;10.57;;
73154;SDS011;61364;52.418;7.382;2022-07-04T05:02:53;10.85;;;10.85;;
73154;SDS011;61364;52.418;7.382;2022-07-04T05:05:18;11.12;;;11.12;;
73154;SDS011;61364;52.418;7.382;2022-07-04T05:07:46;10.81;;;10.81;;
73154;SDS011;61364;52.418;7.382;2022-07-04T05:10:12;10.72;;;10.72;;
73154;SDS011;61364;52.418;7.382;2022-07-04T05:12:39;10.73;;;10.73;;
73154;SDS011;61364;52.418;7.382;2022-07-04T05:15:04;10.00;;;10.00;;
73154;SDS011;61364;52.418;7.382;2022-07-04T05:17:30;9.72;;;9.72;;
73154;SDS011;61364;52.418;7.382;2022-07-04T05:19:56;10.38;;;10.38;;
73154;SDS011;61364;52.418;7.382;2022-07-04T05:22:21;10.19;;;10.19;;
73154;SDS011;61364;52.418;7.382;2022-07-04T05:24:49;9.79;;;9.79;;
73154;SDS011;61364;52.418;7.382;2022-07-04T05:27:15;10.29;;;10.29;;
73154;SDS011;61364;52.418;7.382;2022-07-04T05:29:41;10.25;;;10.25;;
73154;SDS011;61364;52.418;7.382;2022-07-04T05:32:06;9.69;;;9.69;;
73154;SDS011;61364;52.418;7.382;2022-07-04T05:34:33;9.51;;;9.51;;
73154;SDS011;61364;52.418;7.382;2022-07-04T05:36:59;9.29;;;9.29;;
73154;SDS011;61364;52.418;7.382;2022-07-04T05:39:24;9.35;;;9.35;;
73154;SDS011;61364;52.418;7.382;2022-07-04T05:41:50;9.01;;;9.01;;
73154;SDS011;61364;52.418;7.382;2022-07-04T05:44:16;8.93;;;8.93;;
73154;SDS011;61364;52.418;7.382;2022-07-04T05:46:42;8.56;;;8.56;;
73154;SDS011;61364;52.418;7.382;2022-07-04T05:49:10;8.83;;;8.83;;
73154;SDS011;61364;52.418;7.382;2022-07-04T05:51:35;8.11;;;8.11;;
73154;SDS011;61364;52.418;7.382;2022-07-04T05:54:01;8.39;;;8.39;;
73154;SDS011;61364;52.418;7.382;2022-07-04T05:56:26;7.90;;;7.90;;
73154;SDS011;61364;52.418;7.382;2022-07-04T05:58:52;7.40;;;7.40;;
73154;SDS011;61364;52.418;7.382;2022-07-04T06:01:18;7.24;;;7.24;;
73154;SDS011;61364;52.418;7.382;2022-07-04T06:03:44;7.35;;;7.35;;
73154;SDS011;61364;52.418;7.382;2022-07-04T06:06:10;6.91;;;6.91;;
73154;SDS011;61364;52.418;7.382;2022-07-04T06:08:35;6.41;;;6.41;;
73154;SDS011;61364;52.418;7.382;2022-07-04T06:11:02;6.26;;;6.26;;
73154;SDS011;61364;52.418;7.382;2022-07-04T06:13:28;6.34;;;6.34;;
73154;SDS011;61364;52.418;7.382;2022-07-04T06:15:54;5.46;;;5.46;;
73154;SDS011;61364;52.418;7.382;2022-07-04T06:18:19;4.90;;;4.90;;
73154;SDS011;61364;52.418;7.382;2022-07-04T06:20:45;4.99;;;4.99;;
73154;SDS011;61364;52.418;7.382;2022-07-04T06:23:10;4.77;;;4.77;;
73154;SDS011;61364;52.418;7.382;2022-07-04T06:25:36;5.11;;;5.11;;
73154;SDS011;61364;52.418;7.382;2022-07-04T06:28:02;5.15;;;5.15;;
73154;SDS011;61364;52.418;7.382;2022-07-04T06:30:28;4.66;;;4.66;;
73154;SDS011;61364;52.418;7.382;2022-07-04T06:32:56;5.05;;;5.05;;
73154;SDS011;61364;52.418;7.382;2022-07-04T06:35:24;5.10;;;5.10;;
73154;SDS011;61364;52.418;7.382;2022-07-04T06:38:09;5.06;;;5.06;;
73154;SDS011;61364;52.418;7.382;2022-07-04T06:40:36;4.70;;;4.70;;
73154;SDS011;61364;52.418;7.382;2022-07-04T06:43:03;4.28;;;4.28;;
73154;SDS011;61364;52.418;7.382;2022-07-04T06:45:29;4.32;;;4.32;;
73154;SDS011;61364;52.418;7.382;2022-07-04T06:47:55;4.31;;;4.31;;
73154;SDS011;61364;52.418;7.382;2022-07-04T06:50:21;3.76;;;3.76;;
73154;SDS011;61364;52.418;7.382;2022-07-04T06:52:47;4.20;;;4.20;;
73154;SDS011;61364;52.418;7.382;2022-07-04T06:55:13;3.94;;;3.94;;
73154;SDS011;61364;52.418;7.382;2022-07-04T06:57:39;3.86;;;3.86;;
73154;SDS011;61364;52.418;7.382;2022-07-04T07:00:05;3.59;;;3.59;;
73154;SDS011;61364;52.418;7.382;2022-07-04T07:02:35;3.90;;;3.90;;
73154;SDS011;61364;52.418;7.382;2022-07-04T07:05:00;3.73;;;3.73;;
73154;SDS011;61364;52.418;7.382;2022-07-04T07:07:26;3.94;;;3.94;;
73154;SDS011;61364;52.418;7.382;2022-07-04T07:09:53;3.67;;;3.67;;
73154;SDS011;61364;52.418;7.382;2022-07-04T07:12:20;3.66;;;3.66;;
73154;SDS011;61364;52.418;7.382;2022-07-04T07:14:46;3.79;;;3.79;;
73154;SDS011;61364;52.418;7.382;2022-07-04T07:17:12;3.38;;;3.38;;
73154;SDS011;61364;52.418;7.382;2022-07-04T07:19:38;3.49;;;3.49;;
73154;SDS011;61364;52.418;7.382;2022-07-04T07:22:04;3.55;;;3.55;;
73154;SDS011;61364;52.418;7.382;2022-07-04T07:24:29;3.13;;;3.13;;
73154;SDS011;61364;52.418;7.382;2022-07-04T07:26:56;2.80;;;2.80;;
73154;SDS011;61364;52.418;7.382;2022-07-04T07:29:22;2.36;;;2.36;;
73154;SDS011;61364;52.418;7.382;2022-07-04T07:31:48;2.25;;;2.25;;
73154;SDS011;61364;52.418;7.382;2022-07-04T07:34:13;2.59;;;2.59;;
73154;SDS011;61364;52.418;7.382;2022-07-04T07:36:39;2.23;;;2.23;;
73154;SDS011;61364;52.418;7.382;2022-07-04T07:39:05;2.05;;;2.05;;
73154;SDS011;61364;52.418;7.382;2022-07-04T07:41:31;1.94;;;1.94;;
73154;SDS011;61364;52.418;7.382;2022-07-04T07:43:57;1.81;;;1.81;;
73154;SDS011;61364;52.418;7.382;2022-07-04T07:46:23;1.75;;;1.75;;
73154;SDS011;61364;52.418;7.382;2022-07-04T07:48:48;1.57;;;1.57;;
73154;SDS011;61364;52.418;7.382;2022-07-04T07:51:14;1.67;;;1.67;;
73154;SDS011;61364;52.418;7.382;2022-07-04T07:53:40;1.78;;;1.78;;
73154;SDS011;61364;52.418;7.382;2022-07-04T07:56:06;1.72;;;1.72;;
73154;SDS011;61364;52.418;7.382;2022-07-04T07:58:32;1.71;;;1.71;;
73154;SDS011;61364;52.418;7.382;2022-07-04T08:00:57;2.11;;;2.11;;
73154;SDS011;61364;52.418;7.382;2022-07-04T08:03:23;1.95;;;1.95;;
73154;SDS011;61364;52.418;7.382;2022-07-04T08:06:08;1.96;;;1.96;;
73154;SDS011;61364;52.418;7.382;2022-07-04T08:08:33;1.88;;;1.88;;
73154;SDS011;61364;52.418;7.382;2022-07-04T08:10:59;1.68;;;1.68;;
73154;SDS011;61364;52.418;7.382;2022-07-04T08:13:24;1.80;;;1.80;;
73154;SDS011;61364;52.418;7.382;2022-07-04T08:15:50;1.91;;;1.91;;
73154;SDS011;61364;52.418;7.382;2022-07-04T08:18:15;1.81;;;1.81;;
73154;SDS011;61364;52.418;7.382;2022-07-04T08:20:42;1.70;;;1.70;;
73154;SDS011;61364;52.418;7.382;2022-07-04T08:23:07;1.70;;;1.70;;
73154;SDS011;61364;52.418;7.382;2022-07-04T08:25:33;1.80;;;1.80;;
73154;SDS011;61364;52.418;7.382;2022-07-04T08:27:59;1.77;;;1.77;;
73154;SDS011;61364;52.418;7.382;2022-07-04T08:30:24;1.87;;;1.87;;
73154;SDS011;61364;52.418;7.382;2022-07-04T08:32:50;1.56;;;1.56;;
73154;SDS011;61364;52.418;7.382;2022-07-04T08:35:15;1.63;;;1.63;;
73154;SDS011;61364;52.418;7.382;2022-07-04T08:37:41;1.56;;;1.56;;
73154;SDS011;61364;52.418;7.382;2022-07-04T08:40:07;1.35;;;1.35;;
73154;SDS011;61364;52.418;7.382;2022-07-04T08:42:38;1.45;;;1.45;;
73154;SDS011;61364;52.418;7.382;2022-07-04T08:45:05;1.21;;;1.21;;
73154;SDS011;61364;52.418;7.382;2022-07-04T08:47:35;1.20;;;1.20;;
73154;SDS011;61364;52.418;7.382;2022-07-04T08:52:34;1.23;;;1.23;;
73154;SDS011;61364;52.418;7.382;2022-07-04T08:55:01;1.16;;;1.16;;
73154;SDS011;61364;52.418;7.382;2022-07-04T08:57:46;1.29;;;1.29;;
73154;SDS011;61364;52.418;7.382;2022-07-04T09:00:29;1.30;;;1.30;;
73154;SDS011;61364;52.418;7.382;2022-07-04T09:02:55;1.19;;;1.19;;
73154;SDS011;61364;52.418;7.382;2022-07-04T09:05:23;1.25;;;1.25;;
73154;SDS011;61364;52.418;7.382;2022-07-04T09:07:49;1.28;;;1.28;;
73154;SDS011;61364;52.418;7.382;2022-07-04T09:10:15;1.39;;;1.39;;
73154;SDS011;61364;52.418;7.382;2022-07-04T09:12:42;1.32;;;1.32;;
73154;SDS011;61364;52.418;7.382;2022-07-04T09:15:07;1.33;;;1.33;;
73154;SDS011;61364;52.418;7.382;2022-07-04T09:17:33;1.29;;;1.29;;
73154;SDS011;61364;52.418;7.382;2022-07-04T09:22:40;1.31;;;1.31;;
73154;SDS011;61364;52.418;7.382;2022-07-04T09:25:06;1.44;;;1.44;;
73154;SDS011;61364;52.418;7.382;2022-07-04T09:27:32;1.43;;;1.43;;
73154;SDS011;61364;52.418;7.382;2022-07-04T09:29:59;1.58;;;1.58;;
73154;SDS011;61364;52.418;7.382;2022-07-04T09:32:46;1.57;;;1.57;;
73154;SDS011;61364;52.418;7.382;2022-07-04T09:35:20;1.51;;;1.51;;
73154;SDS011;61364;52.418;7.382;2022-07-04T09:37:47;1.47;;;1.47;;
73154;SDS011;61364;52.418;7.382;2022-07-04T09:40:24;1.53;;;1.53;;
73154;SDS011;61364;52.418;7.382;2022-07-04T09:42:50;1.61;;;1.61;;
73154;SDS011;61364;52.418;7.382;2022-07-04T09:45:16;1.51;;;1.51;;
73154;SDS011;61364;52.418;7.382;2022-07-04T09:47:44;1.63;;;1.63;;
73154;SDS011;61364;52.418;7.382;2022-07-04T09:50:12;1.64;;;1.64;;
73154;SDS011;61364;52.418;7.382;2022-07-04T09:52:51;1.62;;;1.62;;
73154;SDS011;61364;52.418;7.382;2022-07-04T09:55:25;1.70;;;1.70;;
73154;SDS011;61364;52.418;7.382;2022-07-04T09:57:52;1.86;;;1.86;;
73154;SDS011;61364;52.418;7.382;2022-07-04T10:02:50;1.55;;;1.55;;
73154;SDS011;61364;52.418;7.382;2022-07-04T10:05:23;1.66;;;1.66;;
73154;SDS011;61364;52.418;7.382;2022-07-04T10:07:50;1.54;;;1.54;;
73154;SDS011;61364;52.418;7.382;2022-07-04T10:10:23;1.54;;;1.54;;
73154;SDS011;61364;52.418;7.382;2022-07-04T10:12:49;1.70;;;1.70;;
73154;SDS011;61364;52.418;7.382;2022-07-04T10:15:15;1.58;;;1.58;;
73154;SDS011;61364;52.418;7.382;2022-07-04T10:17:41;1.62;;;1.62;;
73154;SDS011;61364;52.418;7.382;2022-07-04T10:20:07;1.54;;;1.54;;
73154;SDS011;61364;52.418;7.382;2022-07-04T10:22:36;1.62;;;1.62;;
73154;SDS011;61364;52.418;7.382;2022-07-04T10:25:03;1.56;;;1.56;;
73154;SDS011;61364;52.418;7.382;2022-07-04T10:27:29;1.72;;;1.72;;
73154;SDS011;61364;52.418;7.382;2022-07-04T10:29:55;1.64;;;1.64;;
73154;SDS011;61364;52.418;7.382;2022-07-04T10:32:22;1.65;;;1.65;;
73154;SDS011;61364;52.418;7.382;2022-07-04T10:34:48;1.66;;;1.66;;
73154;SDS011;61364;52.418;7.382;2022-07-04T10:37:14;1.53;;;1.53;;
73154;SDS011;61364;52.418;7.382;2022-07-04T10:39:40;1.62;;;1.62;;
73154;SDS011;61364;52.418;7.382;2022-07-04T10:45:17;1.80;;;1.80;;
73154;SDS011;61364;52.418;7.382;2022-07-04T10:47:56;1.62;;;1.62;;
73154;SDS011;61364;52.418;7.382;2022-07-04T10:50:29;1.48;;;1.48;;
73154;SDS011;61364;52.418;7.382;2022-07-04T10:58:50;1.57;;;1.57;;
73154;SDS011;61364;52.418;7.382;2022-07-04T11:01:16;1.77;;;1.77;;
73154;SDS011;61364;52.418;7.382;2022-07-04T11:09:27;1.83;;;1.83;;
73154;SDS011;61364;52.418;7.382;2022-07-04T11:11:56;2.02;;;2.02;;
73154;SDS011;61364;52.418;7.382;2022-07-04T11:17:20;1.77;;;1.77;;
73154;SDS011;61364;52.418;7.382;2022-07-04T11:19:47;2.04;;;2.04;;
73154;SDS011;61364;52.418;7.382;2022-07-04T11:22:20;2.07;;;2.07;;
73154;SDS011;61364;52.418;7.382;2022-07-04T11:24:55;2.15;;;2.15;;
73154;SDS011;61364;52.418;7.382;2022-07-04T11:27:35;2.21;;;2.21;;
73154;SDS011;61364;52.418;7.382;2022-07-04T11:30:00;2.03;;;2.03;;
73154;SDS011;61364;52.418;7.382;2022-07-04T11:32:36;2.17;;;2.17;;
73154;SDS011;61364;52.418;7.382;2022-07-04T11:35:06;2.24;;;2.24;;
73154;SDS011;61364;52.418;7.382;2022-07-04T11:37:32;2.48;;;2.48;;
73154;SDS011;61364;52.418;7.382;2022-07-04T11:39:58;2.75;;;2.75;;
73154;SDS011;61364;52.418;7.382;2022-07-04T11:48:34;2.98;;;2.98;;
73154;SDS011;61364;52.418;7.382;2022-07-04T11:54:02;3.01;;;3.01;;
73154;SDS011;61364;52.418;7.382;2022-07-04T11:57:07;3.22;;;3.22;;
73154;SDS011;61364;52.418;7.382;2022-07-04T11:59:33;3.23;;;3.23;;
73154;SDS011;61364;52.418;7.382;2022-07-04T12:05:02;3.16;;;3.16;;
73154;SDS011;61364;52.418;7.382;2022-07-04T12:12:34;3.18;;;3.18;;
73154;SDS011;61364;52.418;7.382;2022-07-04T12:15:05;3.32;;;3.32;;
73154;SDS011;61364;52.418;7.382;2022-07-04T12:17:32;3.49;;;3.49;;
73154;SDS011;61364;52.418;7.382;2022-07-04T12:20:00;3.34;;;3.34;;
73154;SDS011;61364;52.418;7.382;2022-07-04T12:22:30;3.72;;;3.72;;
73154;SDS011;61364;52.418;7.382;2022-07-04T12:24:57;3.61;;;3.61;;
73154;SDS011;61364;52.418;7.382;2022-07-04T12:27:30;3.61;;;3.61;;
73154;SDS011;61364;52.418;7.382;2022-07-04T12:29:56;3.65;;;3.65;;
73154;SDS011;61364;52.418;7.382;2022-07-04T12:35:31;3.10;;;3.10;;
73154;SDS011;61364;52.418;7.382;2022-07-04T12:38:08;3.09;;;3.09;;
73154;SDS011;61364;52.418;7.382;2022-07-04T12:40:35;3.16;;;3.16;;
73154;SDS011;61364;52.418;7.382;2022-07-04T12:43:01;3.04;;;3.04;;
73154;SDS011;61364;52.418;7.382;2022-07-04T12:45:40;2.73;;;2.73;;
73154;SDS011;61364;52.418;7.382;2022-07-04T12:53:54;2.35;;;2.35;;
73154;SDS011;61364;52.418;7.382;2022-07-04T12:59:27;2.48;;;2.48;;
73154;SDS011;61364;52.418;7.382;2022-07-04T13:01:56;2.56;;;2.56;;
73154;SDS011;61364;52.418;7.382;2022-07-04T13:04:24;2.54;;;2.54;;
73154;SDS011;61364;52.418;7.382;2022-07-04T13:07:25;2.35;;;2.35;;
73154;SDS011;61364;52.418;7.382;2022-07-04T13:09:53;2.41;;;2.41;;
73154;SDS011;61364;52.418;7.382;2022-07-04T13:12:27;2.54;;;2.54;;
73154;SDS011;61364;52.418;7.382;2022-07-04T13:14:55;2.51;;;2.51;;
73154;SDS011;61364;52.418;7.382;2022-07-04T13:20:15;2.53;;;2.53;;
73154;SDS011;61364;52.418;7.382;2022-07-04T13:22:46;2.59;;;2.59;;
73154;SDS011;61364;52.418;7.382;2022-07-04T13:25:12;2.56;;;2.56;;
73154;SDS011;61364;52.418;7.382;2022-07-04T13:27:41;2.48;;;2.48;;
73154;SDS011;61364;52.418;7.382;2022-07-04T13:30:08;2.75;;;2.75;;
73154;SDS011;61364;52.418;7.382;2022-07-04T13:32:35;2.54;;;2.54;;
73154;SDS011;61364;52.418;7.382;2022-07-04T13:35:02;2.38;;;2.38;;
73154;SDS011;61364;52.418;7.382;2022-07-04T13:37:34;2.25;;;2.25;;
73154;SDS011;61364;52.418;7.382;2022-07-04T13:40:00;2.23;;;2.23;;
73154;SDS011;61364;52.418;7.382;2022-07-04T13:45:18;2.39;;;2.39;;
73154;SDS011;61364;52.418;7.382;2022-07-04T13:50:21;2.27;;;2.27;;
73154;SDS011;61364;52.418;7.382;2022-07-04T13:55:17;2.82;;;2.82;;
73154;SDS011;61364;52.418;7.382;2022-07-04T14:00:20;2.35;;;2.35;;
73154;SDS011;61364;52.418;7.382;2022-07-04T14:02:47;2.42;;;2.42;;
73154;SDS011;61364;52.418;7.382;2022-07-04T14:05:13;2.32;;;2.32;;
73154;SDS011;61364;52.418;7.382;2022-07-04T14:07:48;2.27;;;2.27;;
73154;SDS011;61364;52.418;7.382;2022-07-04T14:10:13;2.23;;;2.23;;
73154;SDS011;61364;52.418;7.382;2022-07-04T14:12:39;2.12;;;2.12;;
73154;SDS011;61364;52.418;7.382;2022-07-04T14:15:05;1.91;;;1.91;;
73154;SDS011;61364;52.418;7.382;2022-07-04T14:20:06;2.02;;;2.02;;
73154;SDS011;61364;52.418;7.382;2022-07-04T14:22:38;2.13;;;2.13;;
73154;SDS011;61364;52.418;7.382;2022-07-04T14:25:04;2.00;;;2.00;;
73154;SDS011;61364;52.418;7.382;2022-07-04T14:27:33;2.06;;;2.06;;
73154;SDS011;61364;52.418;7.382;2022-07-04T14:29:59;2.18;;;2.18;;
73154;SDS011;61364;52.418;7.382;2022-07-04T14:32:24;2.19;;;2.19;;
73154;SDS011;61364;52.418;7.382;2022-07-04T14:34:50;2.12;;;2.12;;
73154;SDS011;61364;52.418;7.382;2022-07-04T14:37:22;2.38;;;2.38;;
73154;SDS011;61364;52.418;7.382;2022-07-04T14:45:27;2.20;;;2.20;;
73154;SDS011;61364;52.418;7.382;2022-07-04T14:47:53;2.13;;;2.13;;
73154;SDS011;61364;52.418;7.382;2022-07-04T14:50:18;2.07;;;2.07;;
73154;SDS011;61364;52.418;7.382;2022-07-04T14:52:46;2.32;;;2.32;;
73154;SDS011;61364;52.418;7.382;2022-07-04T14:55:12;2.50;;;2.50;;
73154;SDS011;61364;52.418;7.382;2022-07-04T14:57:50;2.42;;;2.42;;
73154;SDS011;61364;52.418;7.382;2022-07-04T15:00:16;2.16;;;2.16;;
73154;SDS011;61364;52.418;7.382;2022-07-04T15:05:16;2.28;;;2.28;;
73154;SDS011;61364;52.418;7.382;2022-07-04T15:07:45;2.21;;;2.21;;
73154;SDS011;61364;52.418;7.382;2022-07-04T15:10:10;2.07;;;2.07;;
73154;SDS011;61364;52.418;7.382;2022-07-04T15:15:08;2.42;;;2.42;;
73154;SDS011;61364;52.418;7.382;2022-07-04T15:17:35;1.99;;;1.99;;
73154;SDS011;61364;52.418;7.382;2022-07-04T15:20:01;2.11;;;2.11;;
73154;SDS011;61364;52.418;7.382;2022-07-04T15:22:46;2.15;;;2.15;;
73154;SDS011;61364;52.418;7.382;2022-07-04T15:25:30;2.14;;;2.14;;
73154;SDS011;61364;52.418;7.382;2022-07-04T15:30:26;2.31;;;2.31;;
73154;SDS011;61364;52.418;7.382;2022-07-04T15:35:26;2.45;;;2.45;;
73154;SDS011;61364;52.418;7.382;2022-07-04T15:37:58;2.33;;;2.33;;
73154;SDS011;61364;52.418;7.382;2022-07-04T15:40:26;2.39;;;2.39;;
73154;SDS011;61364;52.418;7.382;2022-07-04T15:42:51;2.26;;;2.26;;
73154;SDS011;61364;52.418;7.382;2022-07-04T15:45:28;2.46;;;2.46;;
73154;SDS011;61364;52.418;7.382;2022-07-04T15:47:54;2.38;;;2.38;;
73154;SDS011;61364;52.418;7.382;2022-07-04T15:50:22;2.24;;;2.24;;
73154;SDS011;61364;52.418;7.382;2022-07-04T15:52:49;2.22;;;2.22;;
73154;SDS011;61364;52.418;7.382;2022-07-04T15:55:19;2.16;;;2.16;;
73154;SDS011;61364;52.418;7.382;2022-07-04T15:57:45;2.16;;;2.16;;
73154;SDS011;61364;52.418;7.382;2022-07-04T16:00:10;2.23;;;2.23;;
73154;SDS011;61364;52.418;7.382;2022-07-04T16:05:21;1.90;;;1.90;;
73154;SDS011;61364;52.418;7.382;2022-07-04T16:07:47;1.95;;;1.95;;
73154;SDS011;61364;52.418;7.382;2022-07-04T16:10:13;1.79;;;1.79;;
73154;SDS011;61364;52.418;7.382;2022-07-04T16:15:53;1.85;;;1.85;;
73154;SDS011;61364;52.418;7.382;2022-07-04T16:18:18;1.91;;;1.91;;
73154;SDS011;61364;52.418;7.382;2022-07-04T16:20:46;1.92;;;1.92;;